TAF and METAR

No METAR available for Basrah International Airport

TAF for Basrah International Airport

TAF ORMM 282200Z 2900/2924 26008KT CAVOK TEMPO 2901/2910 VRB03KT
Report created 29. sep 00:00

between 29. sep 02:00 - 29. sep 02:00

wind 8 knots from W (260°) Clear sky

temporarily between 29. sep 03:00 - 29. sep 12:00

wind 3 knots from various directions